sensor_id;sensor_type;location;lat;lon;timestamp;P1;durP1;ratioP1;P2;durP2;ratioP2
249;SDS011;109;19.806;-70.704;2023-05-07T00:01:37;23.17;;;6.50;;
249;SDS011;109;19.806;-70.704;2023-05-07T00:04:03;34.60;;;7.30;;
249;SDS011;109;19.806;-70.704;2023-05-07T00:06:31;27.10;;;8.20;;
249;SDS011;109;19.806;-70.704;2023-05-07T00:08:58;23.13;;;6.30;;
249;SDS011;109;19.806;-70.704;2023-05-07T00:11:27;23.20;;;6.80;;
249;SDS011;109;19.806;-70.704;2023-05-07T00:13:54;26.63;;;7.17;;
249;SDS011;109;19.806;-70.704;2023-05-07T00:16:20;29.60;;;7.13;;
249;SDS011;109;19.806;-70.704;2023-05-07T00:18:47;25.13;;;6.40;;
249;SDS011;109;19.806;-70.704;2023-05-07T00:21:13;25.37;;;7.00;;
249;SDS011;109;19.806;-70.704;2023-05-07T00:23:40;30.20;;;7.63;;
249;SDS011;109;19.806;-70.704;2023-05-07T00:26:06;37.07;;;7.27;;
249;SDS011;109;19.806;-70.704;2023-05-07T00:28:33;25.27;;;6.33;;
249;SDS011;109;19.806;-70.704;2023-05-07T00:31:00;25.13;;;7.50;;
249;SDS011;109;19.806;-70.704;2023-05-07T00:33:26;29.87;;;6.33;;
249;SDS011;109;19.806;-70.704;2023-05-07T00:35:53;47.57;;;8.13;;
249;SDS011;109;19.806;-70.704;2023-05-07T00:38:22;31.03;;;6.50;;
249;SDS011;109;19.806;-70.704;2023-05-07T00:40:49;26.47;;;8.67;;
249;SDS011;109;19.806;-70.704;2023-05-07T00:43:17;26.43;;;6.50;;
249;SDS011;109;19.806;-70.704;2023-05-07T00:45:43;22.27;;;7.20;;
249;SDS011;109;19.806;-70.704;2023-05-07T00:48:10;37.30;;;7.77;;
249;SDS011;109;19.806;-70.704;2023-05-07T00:50:37;21.67;;;6.83;;
249;SDS011;109;19.806;-70.704;2023-05-07T00:53:03;20.77;;;6.33;;
249;SDS011;109;19.806;-70.704;2023-05-07T00:55:36;23.90;;;7.37;;
249;SDS011;109;19.806;-70.704;2023-05-07T00:58:03;29.90;;;7.57;;
249;SDS011;109;19.806;-70.704;2023-05-07T01:00:36;27.03;;;7.80;;
249;SDS011;109;19.806;-70.704;2023-05-07T01:03:03;32.30;;;7.20;;
249;SDS011;109;19.806;-70.704;2023-05-07T01:05:37;38.30;;;8.70;;
249;SDS011;109;19.806;-70.704;2023-05-07T01:08:04;31.93;;;8.00;;
249;SDS011;109;19.806;-70.704;2023-05-07T01:10:37;22.80;;;6.93;;
249;SDS011;109;19.806;-70.704;2023-05-07T01:13:14;19.13;;;7.47;;
249;SDS011;109;19.806;-70.704;2023-05-07T01:15:42;27.03;;;7.67;;
249;SDS011;109;19.806;-70.704;2023-05-07T01:18:15;21.53;;;7.13;;
249;SDS011;109;19.806;-70.704;2023-05-07T01:20:42;27.87;;;8.20;;
249;SDS011;109;19.806;-70.704;2023-05-07T01:23:15;23.60;;;7.60;;
249;SDS011;109;19.806;-70.704;2023-05-07T01:25:43;23.70;;;7.70;;
249;SDS011;109;19.806;-70.704;2023-05-07T01:28:25;20.67;;;7.13;;
249;SDS011;109;19.806;-70.704;2023-05-07T01:30:58;31.27;;;7.97;;
249;SDS011;109;19.806;-70.704;2023-05-07T01:33:34;33.80;;;7.60;;
249;SDS011;109;19.806;-70.704;2023-05-07T01:36:03;21.03;;;7.63;;
249;SDS011;109;19.806;-70.704;2023-05-07T01:38:47;30.03;;;7.67;;
249;SDS011;109;19.806;-70.704;2023-05-07T01:41:29;27.40;;;7.20;;
249;SDS011;109;19.806;-70.704;2023-05-07T01:43:56;22.40;;;8.10;;
249;SDS011;109;19.806;-70.704;2023-05-07T01:46:31;32.97;;;8.10;;
249;SDS011;109;19.806;-70.704;2023-05-07T01:48:59;27.83;;;8.00;;
249;SDS011;109;19.806;-70.704;2023-05-07T01:51:32;24.13;;;7.77;;
249;SDS011;109;19.806;-70.704;2023-05-07T01:54:00;30.80;;;8.43;;
249;SDS011;109;19.806;-70.704;2023-05-07T01:56:34;29.17;;;8.10;;
249;SDS011;109;19.806;-70.704;2023-05-07T01:59:01;32.73;;;9.00;;
249;SDS011;109;19.806;-70.704;2023-05-07T02:01:35;32.77;;;9.00;;
249;SDS011;109;19.806;-70.704;2023-05-07T02:04:01;23.17;;;9.50;;
249;SDS011;109;19.806;-70.704;2023-05-07T02:06:35;39.63;;;11.77;;
249;SDS011;109;19.806;-70.704;2023-05-07T02:09:04;40.67;;;13.13;;
249;SDS011;109;19.806;-70.704;2023-05-07T02:11:41;38.20;;;12.10;;
249;SDS011;109;19.806;-70.704;2023-05-07T02:14:07;49.07;;;12.90;;
249;SDS011;109;19.806;-70.704;2023-05-07T02:16:41;43.30;;;12.17;;
249;SDS011;109;19.806;-70.704;2023-05-07T02:19:10;37.60;;;11.43;;
249;SDS011;109;19.806;-70.704;2023-05-07T02:21:44;25.00;;;11.17;;
249;SDS011;109;19.806;-70.704;2023-05-07T02:24:18;23.23;;;8.97;;
249;SDS011;109;19.806;-70.704;2023-05-07T02:26:51;27.40;;;9.00;;
249;SDS011;109;19.806;-70.704;2023-05-07T02:29:18;22.83;;;9.47;;
249;SDS011;109;19.806;-70.704;2023-05-07T02:31:52;29.70;;;9.43;;
249;SDS011;109;19.806;-70.704;2023-05-07T02:34:19;35.97;;;10.93;;
249;SDS011;109;19.806;-70.704;2023-05-07T02:36:52;40.60;;;11.00;;
249;SDS011;109;19.806;-70.704;2023-05-07T02:39:39;30.90;;;9.27;;
249;SDS011;109;19.806;-70.704;2023-05-07T02:42:12;27.87;;;7.77;;
249;SDS011;109;19.806;-70.704;2023-05-07T02:44:39;29.50;;;9.03;;
249;SDS011;109;19.806;-70.704;2023-05-07T02:47:13;37.80;;;9.70;;
249;SDS011;109;19.806;-70.704;2023-05-07T02:49:43;23.13;;;9.17;;
249;SDS011;109;19.806;-70.704;2023-05-07T02:52:15;30.93;;;10.00;;
249;SDS011;109;19.806;-70.704;2023-05-07T02:54:42;39.50;;;9.70;;
249;SDS011;109;19.806;-70.704;2023-05-07T02:57:15;33.63;;;8.83;;
249;SDS011;109;19.806;-70.704;2023-05-07T02:59:42;25.33;;;8.50;;
249;SDS011;109;19.806;-70.704;2023-05-07T03:02:17;26.20;;;8.90;;
249;SDS011;109;19.806;-70.704;2023-05-07T03:04:43;33.37;;;10.10;;
249;SDS011;109;19.806;-70.704;2023-05-07T03:07:16;22.70;;;8.73;;
249;SDS011;109;19.806;-70.704;2023-05-07T03:09:43;26.60;;;8.40;;
249;SDS011;109;19.806;-70.704;2023-05-07T03:12:16;30.40;;;8.57;;
249;SDS011;109;19.806;-70.704;2023-05-07T03:14:43;23.67;;;8.43;;
249;SDS011;109;19.806;-70.704;2023-05-07T03:17:17;32.87;;;9.50;;
249;SDS011;109;19.806;-70.704;2023-05-07T03:19:43;25.57;;;8.80;;
249;SDS011;109;19.806;-70.704;2023-05-07T03:22:24;30.70;;;9.70;;
249;SDS011;109;19.806;-70.704;2023-05-07T03:24:57;19.13;;;8.40;;
249;SDS011;109;19.806;-70.704;2023-05-07T03:27:24;27.57;;;8.70;;
249;SDS011;109;19.806;-70.704;2023-05-07T03:29:58;30.53;;;9.80;;
249;SDS011;109;19.806;-70.704;2023-05-07T03:32:24;37.40;;;10.80;;
249;SDS011;109;19.806;-70.704;2023-05-07T03:34:58;36.30;;;9.80;;
249;SDS011;109;19.806;-70.704;2023-05-07T03:37:24;31.47;;;9.33;;
249;SDS011;109;19.806;-70.704;2023-05-07T03:39:58;32.47;;;8.30;;
249;SDS011;109;19.806;-70.704;2023-05-07T03:42:45;23.70;;;8.40;;
249;SDS011;109;19.806;-70.704;2023-05-07T03:45:21;31.57;;;8.90;;
249;SDS011;109;19.806;-70.704;2023-05-07T03:47:57;22.97;;;9.03;;
249;SDS011;109;19.806;-70.704;2023-05-07T03:50:31;25.50;;;8.53;;
249;SDS011;109;19.806;-70.704;2023-05-07T03:52:57;21.97;;;7.83;;
249;SDS011;109;19.806;-70.704;2023-05-07T03:55:34;32.07;;;8.83;;
249;SDS011;109;19.806;-70.704;2023-05-07T03:58:07;32.60;;;9.90;;
249;SDS011;109;19.806;-70.704;2023-05-07T04:00:34;21.03;;;7.63;;
249;SDS011;109;19.806;-70.704;2023-05-07T04:03:28;23.90;;;8.50;;
249;SDS011;109;19.806;-70.704;2023-05-07T04:06:02;28.67;;;7.80;;
249;SDS011;109;19.806;-70.704;2023-05-07T04:08:30;30.10;;;8.33;;
249;SDS011;109;19.806;-70.704;2023-05-07T04:11:05;28.17;;;8.73;;
249;SDS011;109;19.806;-70.704;2023-05-07T04:13:41;29.63;;;8.37;;
249;SDS011;109;19.806;-70.704;2023-05-07T04:16:19;21.03;;;7.53;;
249;SDS011;109;19.806;-70.704;2023-05-07T04:18:51;27.00;;;7.80;;
249;SDS011;109;19.806;-70.704;2023-05-07T04:21:19;26.80;;;7.87;;
249;SDS011;109;19.806;-70.704;2023-05-07T04:23:53;27.87;;;8.60;;
249;SDS011;109;19.806;-70.704;2023-05-07T04:26:20;24.90;;;7.90;;
249;SDS011;109;19.806;-70.704;2023-05-07T04:28:53;34.00;;;9.50;;
249;SDS011;109;19.806;-70.704;2023-05-07T04:31:20;30.00;;;7.60;;
249;SDS011;109;19.806;-70.704;2023-05-07T04:33:54;21.47;;;7.40;;
249;SDS011;109;19.806;-70.704;2023-05-07T04:36:21;25.33;;;7.73;;
249;SDS011;109;19.806;-70.704;2023-05-07T04:39:02;25.30;;;8.20;;
249;SDS011;109;19.806;-70.704;2023-05-07T04:41:52;22.53;;;7.30;;
249;SDS011;109;19.806;-70.704;2023-05-07T04:44:26;26.97;;;9.63;;
249;SDS011;109;19.806;-70.704;2023-05-07T04:46:53;26.93;;;8.87;;
249;SDS011;109;19.806;-70.704;2023-05-07T04:49:27;23.20;;;7.70;;
249;SDS011;109;19.806;-70.704;2023-05-07T04:51:54;27.50;;;7.50;;
249;SDS011;109;19.806;-70.704;2023-05-07T04:54:27;28.00;;;7.90;;
249;SDS011;109;19.806;-70.704;2023-05-07T04:56:54;23.63;;;7.60;;
249;SDS011;109;19.806;-70.704;2023-05-07T04:59:27;25.43;;;8.03;;
249;SDS011;109;19.806;-70.704;2023-05-07T05:01:54;31.23;;;8.20;;
249;SDS011;109;19.806;-70.704;2023-05-07T05:04:28;23.27;;;8.57;;
249;SDS011;109;19.806;-70.704;2023-05-07T05:06:55;30.67;;;7.60;;
249;SDS011;109;19.806;-70.704;2023-05-07T05:09:29;17.13;;;6.87;;
249;SDS011;109;19.806;-70.704;2023-05-07T05:11:56;24.83;;;7.60;;
249;SDS011;109;19.806;-70.704;2023-05-07T05:14:37;30.50;;;8.50;;
249;SDS011;109;19.806;-70.704;2023-05-07T05:17:11;31.33;;;8.40;;
249;SDS011;109;19.806;-70.704;2023-05-07T05:19:37;26.43;;;8.43;;
249;SDS011;109;19.806;-70.704;2023-05-07T05:22:10;26.90;;;7.30;;
249;SDS011;109;19.806;-70.704;2023-05-07T05:24:37;32.03;;;7.90;;
249;SDS011;109;19.806;-70.704;2023-05-07T05:27:09;19.57;;;7.27;;
249;SDS011;109;19.806;-70.704;2023-05-07T05:29:36;23.17;;;7.80;;
249;SDS011;109;19.806;-70.704;2023-05-07T05:32:10;29.00;;;7.57;;
249;SDS011;109;19.806;-70.704;2023-05-07T05:34:37;21.83;;;6.70;;
249;SDS011;109;19.806;-70.704;2023-05-07T05:37:10;32.27;;;8.00;;
249;SDS011;109;19.806;-70.704;2023-05-07T05:39:57;26.63;;;7.30;;
249;SDS011;109;19.806;-70.704;2023-05-07T05:42:30;23.97;;;7.73;;
249;SDS011;109;19.806;-70.704;2023-05-07T05:44:57;27.90;;;8.77;;
249;SDS011;109;19.806;-70.704;2023-05-07T05:47:32;24.03;;;8.77;;
249;SDS011;109;19.806;-70.704;2023-05-07T05:49:59;33.77;;;7.70;;
249;SDS011;109;19.806;-70.704;2023-05-07T05:52:31;40.57;;;8.50;;
249;SDS011;109;19.806;-70.704;2023-05-07T05:54:58;27.30;;;7.43;;
249;SDS011;109;19.806;-70.704;2023-05-07T05:57:33;32.23;;;9.47;;
249;SDS011;109;19.806;-70.704;2023-05-07T06:00:08;34.50;;;13.10;;
249;SDS011;109;19.806;-70.704;2023-05-07T06:02:44;37.33;;;13.10;;
249;SDS011;109;19.806;-70.704;2023-05-07T06:05:15;39.10;;;12.83;;
249;SDS011;109;19.806;-70.704;2023-05-07T06:07:52;35.80;;;11.23;;
249;SDS011;109;19.806;-70.704;2023-05-07T06:10:18;26.00;;;10.70;;
249;SDS011;109;19.806;-70.704;2023-05-07T06:12:51;37.17;;;10.47;;
249;SDS011;109;19.806;-70.704;2023-05-07T06:15:18;29.07;;;9.60;;
249;SDS011;109;19.806;-70.704;2023-05-07T06:17:52;20.00;;;8.20;;
249;SDS011;109;19.806;-70.704;2023-05-07T06:20:19;27.83;;;9.37;;
249;SDS011;109;19.806;-70.704;2023-05-07T06:22:52;29.13;;;9.87;;
249;SDS011;109;19.806;-70.704;2023-05-07T06:25:18;25.50;;;8.70;;
249;SDS011;109;19.806;-70.704;2023-05-07T06:27:52;34.07;;;12.20;;
249;SDS011;109;19.806;-70.704;2023-05-07T06:30:19;34.60;;;12.30;;
249;SDS011;109;19.806;-70.704;2023-05-07T06:32:54;34.63;;;12.60;;
249;SDS011;109;19.806;-70.704;2023-05-07T06:35:20;29.03;;;12.03;;
249;SDS011;109;19.806;-70.704;2023-05-07T06:37:54;38.30;;;12.73;;
249;SDS011;109;19.806;-70.704;2023-05-07T06:40:40;31.97;;;11.60;;
249;SDS011;109;19.806;-70.704;2023-05-07T06:43:21;31.73;;;9.90;;
249;SDS011;109;19.806;-70.704;2023-05-07T06:46:12;28.20;;;10.30;;
249;SDS011;109;19.806;-70.704;2023-05-07T06:48:46;25.10;;;9.47;;
249;SDS011;109;19.806;-70.704;2023-05-07T06:51:13;27.93;;;9.70;;
249;SDS011;109;19.806;-70.704;2023-05-07T06:53:47;36.30;;;10.60;;
249;SDS011;109;19.806;-70.704;2023-05-07T06:56:14;32.47;;;9.40;;
249;SDS011;109;19.806;-70.704;2023-05-07T06:58:47;36.30;;;9.80;;
249;SDS011;109;19.806;-70.704;2023-05-07T07:01:13;28.93;;;10.30;;
249;SDS011;109;19.806;-70.704;2023-05-07T07:03:47;29.03;;;10.47;;
249;SDS011;109;19.806;-70.704;2023-05-07T07:06:13;25.93;;;11.53;;
249;SDS011;109;19.806;-70.704;2023-05-07T07:08:47;34.93;;;10.87;;
249;SDS011;109;19.806;-70.704;2023-05-07T07:11:16;24.73;;;9.10;;
249;SDS011;109;19.806;-70.704;2023-05-07T07:13:49;27.83;;;8.83;;
249;SDS011;109;19.806;-70.704;2023-05-07T07:16:16;19.70;;;8.10;;
249;SDS011;109;19.806;-70.704;2023-05-07T07:18:50;23.83;;;8.07;;
249;SDS011;109;19.806;-70.704;2023-05-07T07:21:17;23.47;;;8.10;;
249;SDS011;109;19.806;-70.704;2023-05-07T07:23:51;19.07;;;8.70;;
249;SDS011;109;19.806;-70.704;2023-05-07T07:26:19;21.50;;;7.97;;
249;SDS011;109;19.806;-70.704;2023-05-07T07:28:53;23.57;;;8.03;;
249;SDS011;109;19.806;-70.704;2023-05-07T07:31:21;22.77;;;8.00;;
249;SDS011;109;19.806;-70.704;2023-05-07T07:33:54;25.87;;;8.37;;
249;SDS011;109;19.806;-70.704;2023-05-07T07:36:22;38.17;;;8.70;;
249;SDS011;109;19.806;-70.704;2023-05-07T07:38:55;25.73;;;8.30;;
249;SDS011;109;19.806;-70.704;2023-05-07T07:41:43;24.83;;;8.37;;
249;SDS011;109;19.806;-70.704;2023-05-07T07:44:18;27.77;;;8.90;;
249;SDS011;109;19.806;-70.704;2023-05-07T07:46:50;26.27;;;9.00;;
249;SDS011;109;19.806;-70.704;2023-05-07T07:49:26;29.10;;;8.70;;
249;SDS011;109;19.806;-70.704;2023-05-07T07:51:54;25.03;;;8.03;;
249;SDS011;109;19.806;-70.704;2023-05-07T07:54:30;26.43;;;9.70;;
249;SDS011;109;19.806;-70.704;2023-05-07T07:56:57;20.00;;;8.47;;
249;SDS011;109;19.806;-70.704;2023-05-07T07:59:32;27.90;;;9.60;;
249;SDS011;109;19.806;-70.704;2023-05-07T08:01:59;28.27;;;8.07;;
249;SDS011;109;19.806;-70.704;2023-05-07T08:04:32;23.40;;;9.10;;
249;SDS011;109;19.806;-70.704;2023-05-07T08:07:02;20.73;;;8.97;;
249;SDS011;109;19.806;-70.704;2023-05-07T08:09:39;30.47;;;8.97;;
249;SDS011;109;19.806;-70.704;2023-05-07T08:12:14;28.80;;;8.57;;
249;SDS011;109;19.806;-70.704;2023-05-07T08:14:41;26.30;;;8.77;;
249;SDS011;109;19.806;-70.704;2023-05-07T08:17:14;27.07;;;9.50;;
249;SDS011;109;19.806;-70.704;2023-05-07T08:19:43;23.93;;;7.93;;
249;SDS011;109;19.806;-70.704;2023-05-07T08:22:16;23.53;;;8.37;;
249;SDS011;109;19.806;-70.704;2023-05-07T08:24:43;30.33;;;8.50;;
249;SDS011;109;19.806;-70.704;2023-05-07T08:27:16;23.10;;;7.90;;
249;SDS011;109;19.806;-70.704;2023-05-07T08:29:43;23.47;;;8.33;;
249;SDS011;109;19.806;-70.704;2023-05-07T08:32:21;41.80;;;9.07;;
249;SDS011;109;19.806;-70.704;2023-05-07T08:34:48;27.93;;;9.27;;
249;SDS011;109;19.806;-70.704;2023-05-07T08:37:28;28.67;;;8.80;;
249;SDS011;109;19.806;-70.704;2023-05-07T08:40:08;20.40;;;8.17;;
249;SDS011;109;19.806;-70.704;2023-05-07T08:42:35;25.40;;;8.80;;
249;SDS011;109;19.806;-70.704;2023-05-07T08:45:10;26.60;;;9.30;;
249;SDS011;109;19.806;-70.704;2023-05-07T08:47:42;25.50;;;9.23;;
249;SDS011;109;19.806;-70.704;2023-05-07T08:50:35;25.73;;;8.93;;
249;SDS011;109;19.806;-70.704;2023-05-07T08:53:10;35.10;;;10.10;;
249;SDS011;109;19.806;-70.704;2023-05-07T08:55:37;23.63;;;8.60;;
249;SDS011;109;19.806;-70.704;2023-05-07T08:58:11;19.33;;;9.50;;
249;SDS011;109;19.806;-70.704;2023-05-07T09:00:39;25.17;;;9.80;;
249;SDS011;109;19.806;-70.704;2023-05-07T09:03:15;31.00;;;10.53;;
249;SDS011;109;19.806;-70.704;2023-05-07T09:05:45;25.23;;;10.20;;
249;SDS011;109;19.806;-70.704;2023-05-07T09:08:23;25.97;;;9.97;;
249;SDS011;109;19.806;-70.704;2023-05-07T09:11:01;26.70;;;10.37;;
249;SDS011;109;19.806;-70.704;2023-05-07T09:13:29;31.53;;;11.30;;
249;SDS011;109;19.806;-70.704;2023-05-07T09:16:11;34.77;;;11.00;;
249;SDS011;109;19.806;-70.704;2023-05-07T09:18:46;33.20;;;10.93;;
249;SDS011;109;19.806;-70.704;2023-05-07T09:21:22;30.67;;;10.87;;
249;SDS011;109;19.806;-70.704;2023-05-07T09:23:58;28.53;;;10.80;;
249;SDS011;109;19.806;-70.704;2023-05-07T09:26:37;25.67;;;10.83;;
249;SDS011;109;19.806;-70.704;2023-05-07T09:29:12;23.70;;;10.37;;
249;SDS011;109;19.806;-70.704;2023-05-07T09:31:48;37.50;;;12.20;;
249;SDS011;109;19.806;-70.704;2023-05-07T09:34:16;28.30;;;11.30;;
249;SDS011;109;19.806;-70.704;2023-05-07T09:36:50;24.10;;;10.77;;
249;SDS011;109;19.806;-70.704;2023-05-07T09:39:17;23.00;;;9.20;;
249;SDS011;109;19.806;-70.704;2023-05-07T09:41:50;21.97;;;9.20;;
249;SDS011;109;19.806;-70.704;2023-05-07T09:44:32;29.87;;;10.67;;
249;SDS011;109;19.806;-70.704;2023-05-07T09:47:11;27.97;;;10.97;;
249;SDS011;109;19.806;-70.704;2023-05-07T09:49:53;31.20;;;9.77;;
249;SDS011;109;19.806;-70.704;2023-05-07T09:52:32;21.47;;;9.77;;
249;SDS011;109;19.806;-70.704;2023-05-07T09:55:09;29.97;;;10.20;;
249;SDS011;109;19.806;-70.704;2023-05-07T09:57:38;32.33;;;11.10;;
249;SDS011;109;19.806;-70.704;2023-05-07T10:00:12;24.67;;;10.77;;
249;SDS011;109;19.806;-70.704;2023-05-07T10:02:46;29.40;;;10.67;;
249;SDS011;109;19.806;-70.704;2023-05-07T10:05:33;23.40;;;10.30;;
249;SDS011;109;19.806;-70.704;2023-05-07T10:08:08;28.67;;;10.73;;
249;SDS011;109;19.806;-70.704;2023-05-07T10:10:44;27.83;;;11.23;;
249;SDS011;109;19.806;-70.704;2023-05-07T10:13:22;25.57;;;10.47;;
249;SDS011;109;19.806;-70.704;2023-05-07T10:15:58;28.57;;;11.30;;
249;SDS011;109;19.806;-70.704;2023-05-07T10:18:31;28.43;;;10.57;;
249;SDS011;109;19.806;-70.704;2023-05-07T10:23:58;29.40;;;11.97;;
249;SDS011;109;19.806;-70.704;2023-05-07T10:26:38;29.90;;;13.30;;
249;SDS011;109;19.806;-70.704;2023-05-07T10:29:07;30.00;;;13.30;;
249;SDS011;109;19.806;-70.704;2023-05-07T10:32:05;27.20;;;12.70;;
249;SDS011;109;19.806;-70.704;2023-05-07T10:41:28;32.47;;;13.50;;
249;SDS011;109;19.806;-70.704;2023-05-07T10:43:55;42.13;;;14.03;;
249;SDS011;109;19.806;-70.704;2023-05-07T10:46:26;34.03;;;12.03;;
249;SDS011;109;19.806;-70.704;2023-05-07T10:49:06;27.60;;;11.60;;
249;SDS011;109;19.806;-70.704;2023-05-07T10:51:39;28.53;;;11.73;;
249;SDS011;109;19.806;-70.704;2023-05-07T10:56:49;25.70;;;11.80;;
249;SDS011;109;19.806;-70.704;2023-05-07T11:02:00;36.90;;;15.67;;
249;SDS011;109;19.806;-70.704;2023-05-07T11:04:38;45.53;;;19.23;;
249;SDS011;109;19.806;-70.704;2023-05-07T11:12:50;56.47;;;24.53;;
249;SDS011;109;19.806;-70.704;2023-05-07T11:15:36;53.53;;;24.20;;
249;SDS011;109;19.806;-70.704;2023-05-07T11:18:11;57.03;;;21.13;;
249;SDS011;109;19.806;-70.704;2023-05-07T11:20:53;45.97;;;18.90;;
249;SDS011;109;19.806;-70.704;2023-05-07T11:26:30;38.30;;;15.03;;
249;SDS011;109;19.806;-70.704;2023-05-07T11:29:11;37.57;;;14.57;;
249;SDS011;109;19.806;-70.704;2023-05-07T11:31:41;32.57;;;12.00;;
249;SDS011;109;19.806;-70.704;2023-05-07T11:34:08;37.33;;;11.83;;
249;SDS011;109;19.806;-70.704;2023-05-07T11:36:35;28.53;;;10.60;;
249;SDS011;109;19.806;-70.704;2023-05-07T11:39:22;28.87;;;10.27;;
249;SDS011;109;19.806;-70.704;2023-05-07T11:41:55;29.47;;;10.37;;
249;SDS011;109;19.806;-70.704;2023-05-07T11:44:21;26.23;;;9.73;;
249;SDS011;109;19.806;-70.704;2023-05-07T11:46:48;32.60;;;9.20;;
249;SDS011;109;19.806;-70.704;2023-05-07T11:49:15;34.80;;;10.70;;
249;SDS011;109;19.806;-70.704;2023-05-07T11:51:41;29.23;;;9.33;;
249;SDS011;109;19.806;-70.704;2023-05-07T11:54:08;26.43;;;9.90;;
249;SDS011;109;19.806;-70.704;2023-05-07T11:56:37;24.40;;;10.57;;
249;SDS011;109;19.806;-70.704;2023-05-07T11:59:04;38.13;;;11.50;;
249;SDS011;109;19.806;-70.704;2023-05-07T12:01:31;27.53;;;10.90;;
249;SDS011;109;19.806;-70.704;2023-05-07T12:04:02;29.20;;;11.80;;
249;SDS011;109;19.806;-70.704;2023-05-07T12:06:30;29.10;;;12.50;;
249;SDS011;109;19.806;-70.704;2023-05-07T12:08:57;51.40;;;12.80;;
249;SDS011;109;19.806;-70.704;2023-05-07T12:11:23;29.33;;;12.37;;
249;SDS011;109;19.806;-70.704;2023-05-07T12:13:51;33.50;;;12.57;;
249;SDS011;109;19.806;-70.704;2023-05-07T12:16:19;30.47;;;12.20;;
249;SDS011;109;19.806;-70.704;2023-05-07T12:18:47;32.13;;;12.00;;
249;SDS011;109;19.806;-70.704;2023-05-07T12:21:14;36.20;;;13.80;;
249;SDS011;109;19.806;-70.704;2023-05-07T12:23:42;27.20;;;11.57;;
249;SDS011;109;19.806;-70.704;2023-05-07T12:26:09;36.23;;;12.10;;
249;SDS011;109;19.806;-70.704;2023-05-07T12:28:37;32.23;;;11.87;;
249;SDS011;109;19.806;-70.704;2023-05-07T12:31:04;37.83;;;12.60;;
249;SDS011;109;19.806;-70.704;2023-05-07T12:33:31;34.20;;;11.47;;
249;SDS011;109;19.806;-70.704;2023-05-07T12:35:58;39.20;;;11.40;;
249;SDS011;109;19.806;-70.704;2023-05-07T12:38:33;37.10;;;11.43;;
249;SDS011;109;19.806;-70.704;2023-05-07T12:41:02;31.80;;;10.90;;
249;SDS011;109;19.806;-70.704;2023-05-07T12:43:28;29.30;;;10.90;;
249;SDS011;109;19.806;-70.704;2023-05-07T12:45:56;34.60;;;10.53;;
249;SDS011;109;19.806;-70.704;2023-05-07T12:48:25;33.83;;;11.67;;
249;SDS011;109;19.806;-70.704;2023-05-07T12:50:54;30.17;;;12.00;;
249;SDS011;109;19.806;-70.704;2023-05-07T12:53:23;41.47;;;10.90;;
249;SDS011;109;19.806;-70.704;2023-05-07T12:55:51;41.17;;;12.77;;
249;SDS011;109;19.806;-70.704;2023-05-07T12:58:20;40.70;;;11.97;;
249;SDS011;109;19.806;-70.704;2023-05-07T13:00:50;38.10;;;12.20;;
249;SDS011;109;19.806;-70.704;2023-05-07T13:03:21;33.23;;;11.23;;
249;SDS011;109;19.806;-70.704;2023-05-07T13:05:50;30.27;;;11.03;;
249;SDS011;109;19.806;-70.704;2023-05-07T13:08:24;30.17;;;12.30;;
249;SDS011;109;19.806;-70.704;2023-05-07T13:10:58;33.80;;;11.03;;
249;SDS011;109;19.806;-70.704;2023-05-07T13:13:30;37.40;;;12.67;;
249;SDS011;109;19.806;-70.704;2023-05-07T13:15:56;27.90;;;11.53;;
249;SDS011;109;19.806;-70.704;2023-05-07T13:18:26;29.07;;;10.47;;
249;SDS011;109;19.806;-70.704;2023-05-07T13:20:53;42.20;;;11.60;;
249;SDS011;109;19.806;-70.704;2023-05-07T13:23:19;40.67;;;11.60;;
249;SDS011;109;19.806;-70.704;2023-05-07T13:25:47;32.37;;;11.60;;
249;SDS011;109;19.806;-70.704;2023-05-07T13:28:16;37.00;;;13.67;;
249;SDS011;109;19.806;-70.704;2023-05-07T13:30:42;41.97;;;11.87;;
249;SDS011;109;19.806;-70.704;2023-05-07T13:33:10;35.83;;;11.23;;
249;SDS011;109;19.806;-70.704;2023-05-07T13:35:39;45.73;;;13.77;;
249;SDS011;109;19.806;-70.704;2023-05-07T13:38:05;39.13;;;11.90;;
249;SDS011;109;19.806;-70.704;2023-05-07T13:40:32;57.93;;;12.20;;
249;SDS011;109;19.806;-70.704;2023-05-07T13:42:58;36.30;;;12.20;;
249;SDS011;109;19.806;-70.704;2023-05-07T13:45:30;41.00;;;12.27;;
249;SDS011;109;19.806;-70.704;2023-05-07T13:47:56;32.43;;;13.87;;
249;SDS011;109;19.806;-70.704;2023-05-07T13:50:23;38.43;;;14.50;;
249;SDS011;109;19.806;-70.704;2023-05-07T13:52:52;50.03;;;16.27;;
249;SDS011;109;19.806;-70.704;2023-05-07T13:55:22;46.40;;;15.63;;
249;SDS011;109;19.806;-70.704;2023-05-07T13:57:56;34.73;;;14.30;;
249;SDS011;109;19.806;-70.704;2023-05-07T14:00:25;52.20;;;19.30;;
249;SDS011;109;19.806;-70.704;2023-05-07T14:02:52;47.67;;;20.80;;
249;SDS011;109;19.806;-70.704;2023-05-07T14:05:19;54.80;;;22.10;;
249;SDS011;109;19.806;-70.704;2023-05-07T14:07:46;61.40;;;20.87;;
249;SDS011;109;19.806;-70.704;2023-05-07T14:10:14;60.87;;;20.90;;
249;SDS011;109;19.806;-70.704;2023-05-07T14:12:41;35.93;;;17.47;;
249;SDS011;109;19.806;-70.704;2023-05-07T14:15:07;45.83;;;17.33;;
249;SDS011;109;19.806;-70.704;2023-05-07T14:17:34;35.90;;;17.40;;
249;SDS011;109;19.806;-70.704;2023-05-07T14:20:00;53.67;;;17.10;;
249;SDS011;109;19.806;-70.704;2023-05-07T14:22:27;53.70;;;19.20;;
249;SDS011;109;19.806;-70.704;2023-05-07T14:24:53;44.80;;;18.83;;
249;SDS011;109;19.806;-70.704;2023-05-07T14:27:20;41.20;;;18.17;;
249;SDS011;109;19.806;-70.704;2023-05-07T14:29:46;38.43;;;16.87;;
249;SDS011;109;19.806;-70.704;2023-05-07T14:32:17;51.83;;;19.40;;
249;SDS011;109;19.806;-70.704;2023-05-07T14:34:44;47.80;;;18.40;;
249;SDS011;109;19.806;-70.704;2023-05-07T14:37:11;43.20;;;17.97;;
249;SDS011;109;19.806;-70.704;2023-05-07T14:39:38;45.50;;;15.27;;
249;SDS011;109;19.806;-70.704;2023-05-07T14:42:05;34.00;;;15.73;;
249;SDS011;109;19.806;-70.704;2023-05-07T14:44:34;34.57;;;15.93;;
249;SDS011;109;19.806;-70.704;2023-05-07T14:47:01;34.00;;;16.37;;
249;SDS011;109;19.806;-70.704;2023-05-07T14:49:28;31.10;;;15.07;;
249;SDS011;109;19.806;-70.704;2023-05-07T14:51:56;31.87;;;15.77;;
249;SDS011;109;19.806;-70.704;2023-05-07T14:54:24;36.37;;;13.97;;
249;SDS011;109;19.806;-70.704;2023-05-07T14:56:51;29.03;;;11.60;;
249;SDS011;109;19.806;-70.704;2023-05-07T14:59:18;25.97;;;12.77;;
249;SDS011;109;19.806;-70.704;2023-05-07T15:01:47;44.03;;;14.00;;
249;SDS011;109;19.806;-70.704;2023-05-07T15:04:13;46.40;;;16.53;;
249;SDS011;109;19.806;-70.704;2023-05-07T15:06:41;40.40;;;13.63;;
249;SDS011;109;19.806;-70.704;2023-05-07T15:09:08;37.23;;;15.50;;
249;SDS011;109;19.806;-70.704;2023-05-07T15:11:34;47.13;;;15.47;;
249;SDS011;109;19.806;-70.704;2023-05-07T15:14:02;41.73;;;13.07;;
249;SDS011;109;19.806;-70.704;2023-05-07T15:16:29;42.27;;;13.57;;
249;SDS011;109;19.806;-70.704;2023-05-07T15:18:55;42.53;;;13.03;;
249;SDS011;109;19.806;-70.704;2023-05-07T15:21:22;34.70;;;12.40;;
249;SDS011;109;19.806;-70.704;2023-05-07T15:23:48;46.17;;;12.17;;
249;SDS011;109;19.806;-70.704;2023-05-07T15:26:15;58.03;;;13.87;;
249;SDS011;109;19.806;-70.704;2023-05-07T15:28:41;44.90;;;13.10;;
249;SDS011;109;19.806;-70.704;2023-05-07T15:31:07;35.60;;;12.00;;
249;SDS011;109;19.806;-70.704;2023-05-07T15:33:34;35.27;;;11.90;;
249;SDS011;109;19.806;-70.704;2023-05-07T15:36:01;54.40;;;13.63;;
249;SDS011;109;19.806;-70.704;2023-05-07T15:38:28;38.60;;;10.87;;
249;SDS011;109;19.806;-70.704;2023-05-07T15:40:55;50.93;;;12.40;;
249;SDS011;109;19.806;-70.704;2023-05-07T15:43:22;34.33;;;10.23;;